General Aviation Weather

Text Reports

Enter one or more of the following location identifiers separated by a space:

Zip Code, Four-Character ICAO or Three-Character IATA airport codes.

METAR - Aviation Routine Weather Report
KAAA - Lincoln, Illinois
Updated at 4:15 PM GMT on December 27, 2014 (10:15 AM CST):
METAR KAAA 271615Z AUTO 28006KT 1 1/2SM RA OVC006 07/06 A3012 RMK AO2 P0001 T00720062
TAF - Terminal Area Forecast
KAAA - Lincoln, Illinois
Updated at 4:15 PM GMT on December 27, 2014 (10:15 AM CST):
No TAF is currently available for this location.
Decoded:
No decoded TAF is available.
PIREP - Pilot Weather Report
KAAA - Lincoln, Illinois
Updated at 4:15 PM GMT on December 27, 2014 (10:15 AM CST):
No PIREP is currently available for this location.
AIRMET - Airmens Meteorological Information
KAAA - Lincoln, Illinois
Updated at 4:15 PM GMT on December 27, 2014 (10:15 AM CST):
No AIRMET is currently available for this location.
SIGMET - Significant Meteorological Information
KAAA - Lincoln, Illinois
Updated at 4:15 PM GMT on December 27, 2014 (10:15 AM CST):
No SIGMET is currently available for this location.
NOTAM - Notice to Airmen
KAAA - Lincoln, Illinois
Updated at 4:15 PM GMT on December 27, 2014 (10:15 AM CST):
No NOTAM is currently available for this location.
Forecast Area
KAAA - Lincoln, Illinois
Updated at 4:15 PM GMT on December 27, 2014 (10:15 AM CST):
No NOTAM is currently available for this location.
Aviation Weather Maps